sensor_id;sensor_type;location;lat;lon;timestamp;pressure;altitude;pressure_sealevel;temperature;humidity
2785;BME280;57944;48.722;9.316;2023-05-29T00:01:39;98071.69;;;12.03;100.00
2785;BME280;57944;48.722;9.316;2023-05-29T00:04:10;98064.63;;;12.05;100.00
2785;BME280;57944;48.722;9.316;2023-05-29T00:06:44;98072.88;;;11.94;100.00
2785;BME280;57944;48.722;9.316;2023-05-29T00:09:15;98073.69;;;11.88;100.00
2785;BME280;57944;48.722;9.316;2023-05-29T00:11:46;98069.16;;;11.70;100.00
2785;BME280;57944;48.722;9.316;2023-05-29T00:14:20;98060.69;;;11.76;100.00
2785;BME280;57944;48.722;9.316;2023-05-29T00:16:51;98065.03;;;11.76;100.00
2785;BME280;57944;48.722;9.316;2023-05-29T00:19:23;98063.06;;;11.71;100.00
2785;BME280;57944;48.722;9.316;2023-05-29T00:21:57;98068.34;;;11.70;100.00
2785;BME280;57944;48.722;9.316;2023-05-29T00:24:28;98075.59;;;11.66;100.00
2785;BME280;57944;48.722;9.316;2023-05-29T00:26:59;98067.34;;;11.64;100.00
2785;BME280;57944;48.722;9.316;2023-05-29T00:29:30;98054.03;;;11.62;100.00
2785;BME280;57944;48.722;9.316;2023-05-29T00:32:02;98057.94;;;11.65;100.00
2785;BME280;57944;48.722;9.316;2023-05-29T00:34:33;98050.88;;;11.60;100.00
2785;BME280;57944;48.722;9.316;2023-05-29T00:37:06;98059.88;;;11.56;100.00
2785;BME280;57944;48.722;9.316;2023-05-29T00:39:38;98057.94;;;11.58;100.00
2785;BME280;57944;48.722;9.316;2023-05-29T00:42:09;98050.88;;;11.67;100.00
2785;BME280;57944;48.722;9.316;2023-05-29T00:44:40;98052.63;;;11.66;100.00
2785;BME280;57944;48.722;9.316;2023-05-29T00:47:11;98050.88;;;11.60;100.00
2785;BME280;57944;48.722;9.316;2023-05-29T00:49:43;98053.81;;;11.57;100.00
2785;BME280;57944;48.722;9.316;2023-05-29T00:52:18;98052.25;;;11.62;100.00
2785;BME280;57944;48.722;9.316;2023-05-29T00:54:49;98053.22;;;11.55;100.00
2785;BME280;57944;48.722;9.316;2023-05-29T00:57:22;98055.19;;;11.53;100.00
2785;BME280;57944;48.722;9.316;2023-05-29T00:59:55;98052.06;;;11.51;100.00
2785;BME280;57944;48.722;9.316;2023-05-29T01:02:26;98042.03;;;11.43;100.00
2785;BME280;57944;48.722;9.316;2023-05-29T01:04:58;98052.41;;;11.28;100.00
2785;BME280;57944;48.722;9.316;2023-05-29T01:07:32;98048.47;;;11.25;100.00
2785;BME280;57944;48.722;9.316;2023-05-29T01:10:04;98048.47;;;11.25;100.00
2785;BME280;57944;48.722;9.316;2023-05-29T01:12:40;98049.66;;;11.29;100.00
2785;BME280;57944;48.722;9.316;2023-05-29T01:15:24;98055.16;;;11.26;100.00
2785;BME280;57944;48.722;9.316;2023-05-29T01:18:12;98051.41;;;11.22;100.00
2785;BME280;57944;48.722;9.316;2023-05-29T01:20:53;98053.78;;;11.24;100.00
2785;BME280;57944;48.722;9.316;2023-05-29T01:24:05;98050.84;;;11.20;100.00
2785;BME280;57944;48.722;9.316;2023-05-29T01:26:50;98052.41;;;11.14;100.00
2785;BME280;57944;48.722;9.316;2023-05-29T01:29:24;98052.78;;;11.18;100.00
2785;BME280;57944;48.722;9.316;2023-05-29T01:31:56;98051.59;;;11.14;100.00
2785;BME280;57944;48.722;9.316;2023-05-29T01:34:29;98054.75;;;11.16;100.00
2785;BME280;57944;48.722;9.316;2023-05-29T01:37:00;98054.75;;;11.09;100.00
2785;BME280;57944;48.722;9.316;2023-05-29T01:39:31;98063.78;;;11.12;100.00
2785;BME280;57944;48.722;9.316;2023-05-29T01:42:07;98054.72;;;11.03;100.00
2785;BME280;57944;48.722;9.316;2023-05-29T01:44:38;98052.31;;;10.88;100.00
2785;BME280;57944;48.722;9.316;2023-05-29T01:47:09;98055.25;;;10.78;100.00
2785;BME280;57944;48.722;9.316;2023-05-29T01:49:40;98060.88;;;10.67;100.00
2785;BME280;57944;48.722;9.316;2023-05-29T01:52:12;98059.28;;;10.59;100.00
2785;BME280;57944;48.722;9.316;2023-05-29T01:54:43;98063.56;;;10.52;100.00
2785;BME280;57944;48.722;9.316;2023-05-29T01:57:17;98060.63;;;10.55;100.00
2785;BME280;57944;48.722;9.316;2023-05-29T01:59:48;98068.78;;;10.37;100.00
2785;BME280;57944;48.722;9.316;2023-05-29T02:02:20;98064.44;;;10.31;100.00
2785;BME280;57944;48.722;9.316;2023-05-29T02:04:51;98060.69;;;10.27;100.00
2785;BME280;57944;48.722;9.316;2023-05-29T02:07:22;98063.56;;;10.17;100.00
2785;BME280;57944;48.722;9.316;2023-05-29T02:09:53;98067.25;;;10.15;100.00
2785;BME280;57944;48.722;9.316;2023-05-29T02:12:27;98072.88;;;10.03;100.00
2785;BME280;57944;48.722;9.316;2023-05-29T02:14:58;98071.47;;;10.01;100.00
2785;BME280;57944;48.722;9.316;2023-05-29T02:17:29;98068.69;;;9.96;100.00
2785;BME280;57944;48.722;9.316;2023-05-29T02:20:01;98073.13;;;9.87;100.00
2785;BME280;57944;48.722;9.316;2023-05-29T02:22:32;98062.34;;;9.85;100.00
2785;BME280;57944;48.722;9.316;2023-05-29T02:25:03;98074.81;;;9.80;100.00
2785;BME280;57944;48.722;9.316;2023-05-29T02:27:37;98068.31;;;9.71;100.00
2785;BME280;57944;48.722;9.316;2023-05-29T02:30:08;98064.00;;;9.71;100.00
2785;BME280;57944;48.722;9.316;2023-05-29T02:32:41;98061.03;;;9.68;100.00
2785;BME280;57944;48.722;9.316;2023-05-29T02:35:12;98068.44;;;9.62;100.00
2785;BME280;57944;48.722;9.316;2023-05-29T02:37:45;98067.59;;;9.55;100.00
2785;BME280;57944;48.722;9.316;2023-05-29T02:40:16;98067.16;;;9.52;100.00
2785;BME280;57944;48.722;9.316;2023-05-29T02:42:50;98069.53;;;9.53;100.00
2785;BME280;57944;48.722;9.316;2023-05-29T02:45:21;98071.47;;;9.51;100.00
2785;BME280;57944;48.722;9.316;2023-05-29T02:47:54;98065.53;;;9.44;100.00
2785;BME280;57944;48.722;9.316;2023-05-29T02:50:26;98071.34;;;9.38;100.00
2785;BME280;57944;48.722;9.316;2023-05-29T02:52:58;98067.16;;;9.30;100.00
2785;BME280;57944;48.722;9.316;2023-05-29T02:55:29;98061.72;;;9.33;100.00
2785;BME280;57944;48.722;9.316;2023-05-29T02:58:02;98057.19;;;9.29;100.00
2785;BME280;57944;48.722;9.316;2023-05-29T03:00:33;98064.69;;;9.37;100.00
2785;BME280;57944;48.722;9.316;2023-05-29T03:03:04;98066.47;;;9.36;100.00
2785;BME280;57944;48.722;9.316;2023-05-29T03:05:35;98062.44;;;9.27;100.00
2785;BME280;57944;48.722;9.316;2023-05-29T03:08:06;98063.94;;;9.22;100.00
2785;BME280;57944;48.722;9.316;2023-05-29T03:10:38;98063.88;;;9.15;100.00
2785;BME280;57944;48.722;9.316;2023-05-29T03:13:11;98056.63;;;9.12;100.00
2785;BME280;57944;48.722;9.316;2023-05-29T03:15:51;98061.41;;;9.22;100.00
2785;BME280;57944;48.722;9.316;2023-05-29T03:18:24;98059.84;;;9.21;100.00
2785;BME280;57944;48.722;9.316;2023-05-29T03:20:55;98054.13;;;9.18;100.00
2785;BME280;57944;48.722;9.316;2023-05-29T03:23:26;98054.75;;;9.21;100.00
2785;BME280;57944;48.722;9.316;2023-05-29T03:25:58;98063.38;;;9.20;100.00
2785;BME280;57944;48.722;9.316;2023-05-29T03:28:32;98065.66;;;9.14;100.00
2785;BME280;57944;48.722;9.316;2023-05-29T03:31:06;98060.69;;;9.06;100.00
2785;BME280;57944;48.722;9.316;2023-05-29T03:33:37;98062.34;;;8.99;100.00
2785;BME280;57944;48.722;9.316;2023-05-29T03:36:22;98062.97;;;9.01;100.00
2785;BME280;57944;48.722;9.316;2023-05-29T03:38:52;98062.59;;;9.04;100.00
2785;BME280;57944;48.722;9.316;2023-05-29T03:41:23;98065.16;;;9.04;100.00
2785;BME280;57944;48.722;9.316;2023-05-29T03:43:56;98064.41;;;9.10;100.00
2785;BME280;57944;48.722;9.316;2023-05-29T03:46:27;98062.91;;;9.16;100.00
2785;BME280;57944;48.722;9.316;2023-05-29T03:48:59;98062.38;;;9.21;100.00
2785;BME280;57944;48.722;9.316;2023-05-29T03:51:31;98075.59;;;9.31;100.00
2785;BME280;57944;48.722;9.316;2023-05-29T03:54:04;98069.00;;;9.36;100.00
2785;BME280;57944;48.722;9.316;2023-05-29T03:56:36;98072.94;;;9.39;100.00
2785;BME280;57944;48.722;9.316;2023-05-29T03:59:10;98076.06;;;9.41;100.00
2785;BME280;57944;48.722;9.316;2023-05-29T04:01:41;98078.84;;;9.46;100.00
2785;BME280;57944;48.722;9.316;2023-05-29T04:04:13;98078.72;;;9.54;100.00
2785;BME280;57944;48.722;9.316;2023-05-29T04:06:44;98074.97;;;9.72;100.00
2785;BME280;57944;48.722;9.316;2023-05-29T04:09:15;98081.28;;;10.04;100.00
2785;BME280;57944;48.722;9.316;2023-05-29T04:11:46;98080.16;;;10.41;100.00
2785;BME280;57944;48.722;9.316;2023-05-29T04:14:19;98084.47;;;10.89;100.00
2785;BME280;57944;48.722;9.316;2023-05-29T04:16:50;98092.91;;;11.51;100.00
2785;BME280;57944;48.722;9.316;2023-05-29T04:19:21;98095.69;;;12.09;100.00
2785;BME280;57944;48.722;9.316;2023-05-29T04:21:52;98103.78;;;12.64;100.00
2785;BME280;57944;48.722;9.316;2023-05-29T04:24:22;98109.22;;;12.88;100.00
2785;BME280;57944;48.722;9.316;2023-05-29T04:26:53;98115.03;;;13.08;100.00
2785;BME280;57944;48.722;9.316;2023-05-29T04:29:28;98116.16;;;13.19;100.00
2785;BME280;57944;48.722;9.316;2023-05-29T04:32:00;98121.97;;;13.46;100.00
2785;BME280;57944;48.722;9.316;2023-05-29T04:34:31;98122.94;;;13.77;100.00
2785;BME280;57944;48.722;9.316;2023-05-29T04:37:02;98126.00;;;14.11;100.00
2785;BME280;57944;48.722;9.316;2023-05-29T04:39:33;98128.59;;;14.29;100.00
2785;BME280;57944;48.722;9.316;2023-05-29T04:42:05;98137.53;;;14.45;100.00
2785;BME280;57944;48.722;9.316;2023-05-29T04:44:40;98135.63;;;14.95;100.00
2785;BME280;57944;48.722;9.316;2023-05-29T04:47:11;98129.28;;;15.28;100.00
2785;BME280;57944;48.722;9.316;2023-05-29T04:49:45;98131.56;;;15.78;100.00
2785;BME280;57944;48.722;9.316;2023-05-29T04:52:18;98136.38;;;16.10;100.00
2785;BME280;57944;48.722;9.316;2023-05-29T04:54:49;98137.06;;;16.52;96.74
2785;BME280;57944;48.722;9.316;2023-05-29T04:57:21;98138.56;;;16.89;93.35
2785;BME280;57944;48.722;9.316;2023-05-29T04:59:54;98146.81;;;17.31;86.51
2785;BME280;57944;48.722;9.316;2023-05-29T05:02:26;98145.53;;;17.62;83.27
2785;BME280;57944;48.722;9.316;2023-05-29T05:04:57;98151.66;;;17.90;79.00
2785;BME280;57944;48.722;9.316;2023-05-29T05:07:28;98152.19;;;18.26;75.95
2785;BME280;57944;48.722;9.316;2023-05-29T05:09:59;98151.97;;;18.49;72.43
2785;BME280;57944;48.722;9.316;2023-05-29T05:12:31;98154.56;;;18.49;73.26
2785;BME280;57944;48.722;9.316;2023-05-29T05:15:06;98151.50;;;18.52;72.75
2785;BME280;57944;48.722;9.316;2023-05-29T05:17:38;98145.53;;;18.91;68.47
2785;BME280;57944;48.722;9.316;2023-05-29T05:20:11;98152.63;;;19.01;67.38
2785;BME280;57944;48.722;9.316;2023-05-29T05:22:44;98152.44;;;19.34;63.94
2785;BME280;57944;48.722;9.316;2023-05-29T05:25:15;98155.66;;;19.47;64.46
2785;BME280;57944;48.722;9.316;2023-05-29T05:27:47;98160.13;;;19.83;62.41
2785;BME280;57944;48.722;9.316;2023-05-29T05:30:23;98156.47;;;20.17;59.61
2785;BME280;57944;48.722;9.316;2023-05-29T05:32:53;98160.16;;;20.68;56.22
2785;BME280;57944;48.722;9.316;2023-05-29T05:35:24;98159.78;;;21.12;55.37
2785;BME280;57944;48.722;9.316;2023-05-29T05:37:56;98155.47;;;21.54;53.02
2785;BME280;57944;48.722;9.316;2023-05-29T05:40:28;98159.84;;;21.84;52.28
2785;BME280;57944;48.722;9.316;2023-05-29T05:43:06;98164.00;;;22.11;50.27
2785;BME280;57944;48.722;9.316;2023-05-29T05:46:09;98158.47;;;22.48;49.14
2785;BME280;57944;48.722;9.316;2023-05-29T05:48:42;98160.16;;;22.88;48.07
2785;BME280;57944;48.722;9.316;2023-05-29T05:51:13;98154.59;;;23.15;47.53
2785;BME280;57944;48.722;9.316;2023-05-29T05:53:44;98157.97;;;23.11;47.08
2785;BME280;57944;48.722;9.316;2023-05-29T05:56:15;98156.81;;;23.32;45.96
2785;BME280;57944;48.722;9.316;2023-05-29T05:58:45;98157.19;;;23.15;46.54
2785;BME280;57944;48.722;9.316;2023-05-29T06:01:21;98166.28;;;23.52;45.67
2785;BME280;57944;48.722;9.316;2023-05-29T06:03:52;98167.22;;;24.01;44.55
2785;BME280;57944;48.722;9.316;2023-05-29T06:06:23;98170.28;;;24.32;44.63
2785;BME280;57944;48.722;9.316;2023-05-29T06:08:54;98171.25;;;24.65;43.88
2785;BME280;57944;48.722;9.316;2023-05-29T06:11:25;98170.19;;;25.09;42.35
2785;BME280;57944;48.722;9.316;2023-05-29T06:13:56;98165.38;;;25.22;41.72
2785;BME280;57944;48.722;9.316;2023-05-29T06:16:31;98174.38;;;24.67;42.69
2785;BME280;57944;48.722;9.316;2023-05-29T06:19:02;98177.84;;;25.25;41.82
2785;BME280;57944;48.722;9.316;2023-05-29T06:21:44;98177.72;;;25.16;42.56
2785;BME280;57944;48.722;9.316;2023-05-29T06:24:15;98174.47;;;25.57;41.13
2785;BME280;57944;48.722;9.316;2023-05-29T06:26:47;98173.88;;;25.79;40.40
2785;BME280;57944;48.722;9.316;2023-05-29T06:29:19;98173.09;;;25.97;38.83
2785;BME280;57944;48.722;9.316;2023-05-29T06:31:53;98179.69;;;26.36;38.75
2785;BME280;57944;48.722;9.316;2023-05-29T06:34:24;98185.47;;;26.88;37.08
2785;BME280;57944;48.722;9.316;2023-05-29T06:36:55;98184.69;;;27.02;37.25
2785;BME280;57944;48.722;9.316;2023-05-29T06:39:26;98183.94;;;26.87;36.90
2785;BME280;57944;48.722;9.316;2023-05-29T06:41:58;98181.09;;;27.11;35.72
2785;BME280;57944;48.722;9.316;2023-05-29T06:44:29;98193.47;;;26.83;36.09
2785;BME280;57944;48.722;9.316;2023-05-29T06:47:02;98181.75;;;25.93;37.60
2785;BME280;57944;48.722;9.316;2023-05-29T06:49:33;98196.94;;;26.65;37.05
2785;BME280;57944;48.722;9.316;2023-05-29T06:52:04;98191.81;;;26.73;36.76
2785;BME280;57944;48.722;9.316;2023-05-29T06:54:53;98195.94;;;27.38;35.98
2785;BME280;57944;48.722;9.316;2023-05-29T06:57:24;98186.59;;;27.24;35.98
2785;BME280;57944;48.722;9.316;2023-05-29T06:59:55;98198.06;;;27.50;36.60
2785;BME280;57944;48.722;9.316;2023-05-29T07:02:30;98191.22;;;28.17;35.57
2785;BME280;57944;48.722;9.316;2023-05-29T07:05:01;98197.09;;;27.91;36.16
2785;BME280;57944;48.722;9.316;2023-05-29T07:07:32;98197.34;;;26.72;37.89
2785;BME280;57944;48.722;9.316;2023-05-29T07:10:04;98195.00;;;25.96;38.59
2785;BME280;57944;48.722;9.316;2023-05-29T07:12:35;98201.03;;;25.45;39.91
2785;BME280;57944;48.722;9.316;2023-05-29T07:15:06;98206.31;;;24.54;40.95
2785;BME280;57944;48.722;9.316;2023-05-29T07:17:43;98203.63;;;24.35;41.14
2785;BME280;57944;48.722;9.316;2023-05-29T07:20:19;98213.56;;;24.57;41.43
2785;BME280;57944;48.722;9.316;2023-05-29T07:22:50;98204.06;;;25.52;40.11
2785;BME280;57944;48.722;9.316;2023-05-29T07:25:21;98199.34;;;25.87;39.41
2785;BME280;57944;48.722;9.316;2023-05-29T07:27:53;98207.75;;;25.65;39.08
2785;BME280;57944;48.722;9.316;2023-05-29T07:30:32;98210.84;;;26.46;37.99
2785;BME280;57944;48.722;9.316;2023-05-29T07:33:06;98208.72;;;27.04;36.86
2785;BME280;57944;48.722;9.316;2023-05-29T07:35:37;98208.75;;;26.76;36.95
2785;BME280;57944;48.722;9.316;2023-05-29T07:38:09;98212.25;;;26.58;36.72
2785;BME280;57944;48.722;9.316;2023-05-29T07:40:42;98208.53;;;26.31;37.10
2785;BME280;57944;48.722;9.316;2023-05-29T07:43:25;98208.66;;;25.93;37.40
2785;BME280;57944;48.722;9.316;2023-05-29T07:45:59;98209.31;;;25.85;38.37
2785;BME280;57944;48.722;9.316;2023-05-29T07:48:33;98211.28;;;26.54;37.05
2785;BME280;57944;48.722;9.316;2023-05-29T07:51:03;98212.53;;;26.84;36.40
2785;BME280;57944;48.722;9.316;2023-05-29T07:53:40;98202.03;;;27.48;34.74
2785;BME280;57944;48.722;9.316;2023-05-29T07:56:15;98208.22;;;27.52;34.60
2785;BME280;57944;48.722;9.316;2023-05-29T07:58:48;98203.88;;;27.70;35.04
2785;BME280;57944;48.722;9.316;2023-05-29T08:01:21;98205.31;;;27.76;34.83
2785;BME280;57944;48.722;9.316;2023-05-29T08:03:55;98216.66;;;27.71;34.46
2785;BME280;57944;48.722;9.316;2023-05-29T08:06:30;98222.56;;;28.62;33.51
2785;BME280;57944;48.722;9.316;2023-05-29T08:09:02;98215.09;;;29.38;32.61
2785;BME280;57944;48.722;9.316;2023-05-29T08:11:33;98216.66;;;29.48;32.26
2785;BME280;57944;48.722;9.316;2023-05-29T08:14:04;98212.56;;;29.94;31.53
2785;BME280;57944;48.722;9.316;2023-05-29T08:16:36;98210.09;;;30.45;30.49
2785;BME280;57944;48.722;9.316;2023-05-29T08:19:10;98209.69;;;31.14;30.09
2785;BME280;57944;48.722;9.316;2023-05-29T08:21:41;98218.16;;;31.20;29.89
2785;BME280;57944;48.722;9.316;2023-05-29T08:24:12;98211.16;;;31.03;30.46
2785;BME280;57944;48.722;9.316;2023-05-29T08:26:42;98209.81;;;31.93;28.92
2785;BME280;57944;48.722;9.316;2023-05-29T08:29:13;98219.44;;;31.56;29.17
2785;BME280;57944;48.722;9.316;2023-05-29T08:31:44;98207.34;;;32.46;28.64
2785;BME280;57944;48.722;9.316;2023-05-29T08:34:17;98208.56;;;31.91;28.69
2785;BME280;57944;48.722;9.316;2023-05-29T08:36:51;98206.88;;;30.99;29.36
2785;BME280;57944;48.722;9.316;2023-05-29T08:39:25;98208.53;;;30.82;30.06
2785;BME280;57944;48.722;9.316;2023-05-29T08:42:01;98200.78;;;31.94;28.75
2785;BME280;57944;48.722;9.316;2023-05-29T08:44:36;98191.69;;;32.28;28.31
2785;BME280;57944;48.722;9.316;2023-05-29T08:47:11;98196.50;;;30.43;30.88
2785;BME280;57944;48.722;9.316;2023-05-29T08:49:53;98189.53;;;31.39;29.47
2785;BME280;57944;48.722;9.316;2023-05-29T08:52:25;98198.50;;;32.79;27.78
2785;BME280;57944;48.722;9.316;2023-05-29T08:54:56;98194.56;;;33.53;27.71
2785;BME280;57944;48.722;9.316;2023-05-29T08:57:29;98195.34;;;32.24;28.68
2785;BME280;57944;48.722;9.316;2023-05-29T09:00:01;98200.44;;;31.08;29.73
2785;BME280;57944;48.722;9.316;2023-05-29T09:02:33;98201.06;;;31.68;28.99
2785;BME280;57944;48.722;9.316;2023-05-29T09:05:08;98200.06;;;32.67;28.14
2785;BME280;57944;48.722;9.316;2023-05-29T09:07:40;98196.66;;;33.20;27.95
2785;BME280;57944;48.722;9.316;2023-05-29T09:10:11;98206.19;;;31.98;29.07
2785;BME280;57944;48.722;9.316;2023-05-29T09:12:43;98201.34;;;32.00;28.93
2785;BME280;57944;48.722;9.316;2023-05-29T09:15:21;98199.41;;;32.58;28.91
2785;BME280;57944;48.722;9.316;2023-05-29T09:17:52;98194.91;;;33.11;28.36
2785;BME280;57944;48.722;9.316;2023-05-29T09:20:27;98178.06;;;32.02;28.59
2785;BME280;57944;48.722;9.316;2023-05-29T09:23:00;98208.41;;;32.08;29.06
2785;BME280;57944;48.722;9.316;2023-05-29T09:25:39;98192.72;;;31.45;29.84
2785;BME280;57944;48.722;9.316;2023-05-29T09:28:11;98197.75;;;31.17;29.99
2785;BME280;57944;48.722;9.316;2023-05-29T09:30:45;98194.28;;;30.83;31.18
2785;BME280;57944;48.722;9.316;2023-05-29T09:33:17;98201.34;;;31.54;30.43
2785;BME280;57944;48.722;9.316;2023-05-29T09:35:51;98199.50;;;32.62;28.63
2785;BME280;57944;48.722;9.316;2023-05-29T09:38:22;98192.00;;;32.88;26.66
2785;BME280;57944;48.722;9.316;2023-05-29T09:41:12;98191.94;;;32.36;25.53
2785;BME280;57944;48.722;9.316;2023-05-29T09:43:43;98192.47;;;32.54;26.17
2785;BME280;57944;48.722;9.316;2023-05-29T09:46:16;98194.25;;;32.13;27.97
2785;BME280;57944;48.722;9.316;2023-05-29T09:48:49;98206.25;;;31.44;26.72
2785;BME280;57944;48.722;9.316;2023-05-29T09:51:23;98204.81;;;31.79;26.86
2785;BME280;57944;48.722;9.316;2023-05-29T09:53:54;98192.91;;;32.19;26.58
2785;BME280;57944;48.722;9.316;2023-05-29T09:56:29;98205.53;;;30.92;27.97
2785;BME280;57944;48.722;9.316;2023-05-29T09:59:01;98193.00;;;30.60;27.17
2785;BME280;57944;48.722;9.316;2023-05-29T10:01:32;98193.63;;;30.86;26.16
2785;BME280;57944;48.722;9.316;2023-05-29T10:04:07;98201.00;;;30.42;26.08
2785;BME280;57944;48.722;9.316;2023-05-29T10:06:43;98188.09;;;29.12;27.35
2785;BME280;57944;48.722;9.316;2023-05-29T10:09:18;98198.56;;;29.81;27.54
2785;BME280;57944;48.722;9.316;2023-05-29T10:11:50;98198.88;;;30.65;26.76
2785;BME280;57944;48.722;9.316;2023-05-29T10:14:26;98202.50;;;31.03;24.84
2785;BME280;57944;48.722;9.316;2023-05-29T10:17:02;98190.63;;;30.46;25.97
2785;BME280;57944;48.722;9.316;2023-05-29T10:19:38;98190.94;;;30.95;26.10
2785;BME280;57944;48.722;9.316;2023-05-29T10:22:12;98192.59;;;30.79;26.33
2785;BME280;57944;48.722;9.316;2023-05-29T10:24:44;98197.03;;;30.19;26.67
2785;BME280;57944;48.722;9.316;2023-05-29T10:27:16;98193.78;;;30.90;25.44
2785;BME280;57944;48.722;9.316;2023-05-29T10:29:53;98193.22;;;32.17;24.75
2785;BME280;57944;48.722;9.316;2023-05-29T10:32:32;98180.50;;;32.07;24.38
2785;BME280;57944;48.722;9.316;2023-05-29T10:35:10;98188.13;;;31.00;26.15
2785;BME280;57944;48.722;9.316;2023-05-29T10:37:51;98184.94;;;31.82;25.56
2785;BME280;57944;48.722;9.316;2023-05-29T10:40:24;98173.56;;;32.64;25.01
2785;BME280;57944;48.722;9.316;2023-05-29T10:42:55;98165.91;;;33.55;24.53
2785;BME280;57944;48.722;9.316;2023-05-29T10:45:55;98163.06;;;33.48;24.27
2785;BME280;57944;48.722;9.316;2023-05-29T10:48:42;98176.47;;;34.66;23.21
2785;BME280;57944;48.722;9.316;2023-05-29T10:51:28;98173.97;;;35.55;22.53
2785;BME280;57944;48.722;9.316;2023-05-29T10:54:06;98168.78;;;34.61;23.36
2785;BME280;57944;48.722;9.316;2023-05-29T10:56:37;98168.91;;;31.42;26.27
2785;BME280;57944;48.722;9.316;2023-05-29T10:59:09;98163.84;;;30.94;26.48
2785;BME280;57944;48.722;9.316;2023-05-29T11:01:40;98158.59;;;31.15;27.24
2785;BME280;57944;48.722;9.316;2023-05-29T11:04:27;98167.88;;;31.67;25.96
2785;BME280;57944;48.722;9.316;2023-05-29T11:07:00;98163.00;;;32.39;24.75
2785;BME280;57944;48.722;9.316;2023-05-29T11:09:37;98169.34;;;31.44;25.88
2785;BME280;57944;48.722;9.316;2023-05-29T11:12:13;98160.06;;;31.58;25.21
2785;BME280;57944;48.722;9.316;2023-05-29T11:14:55;98152.47;;;32.27;24.64
2785;BME280;57944;48.722;9.316;2023-05-29T11:17:43;98158.19;;;32.17;25.47
2785;BME280;57944;48.722;9.316;2023-05-29T11:20:28;98166.34;;;32.89;24.62
2785;BME280;57944;48.722;9.316;2023-05-29T11:23:04;98151.38;;;32.53;24.63
2785;BME280;57944;48.722;9.316;2023-05-29T11:25:39;98161.13;;;32.40;24.17
2785;BME280;57944;48.722;9.316;2023-05-29T11:28:12;98156.00;;;32.19;25.69
2785;BME280;57944;48.722;9.316;2023-05-29T11:30:44;98163.19;;;33.84;23.61
2785;BME280;57944;48.722;9.316;2023-05-29T11:33:23;98172.94;;;34.27;23.04
2785;BME280;57944;48.722;9.316;2023-05-29T11:35:58;98171.56;;;34.33;22.30
2785;BME280;57944;48.722;9.316;2023-05-29T11:38:29;98167.94;;;33.46;23.33
2785;BME280;57944;48.722;9.316;2023-05-29T11:41:04;98155.88;;;33.05;23.94
2785;BME280;57944;48.722;9.316;2023-05-29T11:43:35;98149.94;;;32.55;23.30
2785;BME280;57944;48.722;9.316;2023-05-29T11:46:16;98149.22;;;31.72;23.97
2785;BME280;57944;48.722;9.316;2023-05-29T11:48:47;98149.69;;;31.87;23.99
2785;BME280;57944;48.722;9.316;2023-05-29T11:51:18;98148.56;;;31.09;23.64
2785;BME280;57944;48.722;9.316;2023-05-29T11:53:49;98151.41;;;31.70;23.61
2785;BME280;57944;48.722;9.316;2023-05-29T11:56:30;98151.47;;;32.56;22.86
2785;BME280;57944;48.722;9.316;2023-05-29T11:59:01;98152.84;;;33.47;22.41
2785;BME280;57944;48.722;9.316;2023-05-29T12:01:35;98156.53;;;33.90;21.26
2785;BME280;57944;48.722;9.316;2023-05-29T12:04:14;98158.81;;;33.15;21.83
2785;BME280;57944;48.722;9.316;2023-05-29T12:06:46;98153.06;;;31.87;23.48
2785;BME280;57944;48.722;9.316;2023-05-29T12:09:26;98159.50;;;32.11;22.17
2785;BME280;57944;48.722;9.316;2023-05-29T12:12:05;98169.50;;;32.66;22.39
2785;BME280;57944;48.722;9.316;2023-05-29T12:14:36;98159.50;;;32.60;22.06
2785;BME280;57944;48.722;9.316;2023-05-29T12:17:07;98166.47;;;31.36;23.34
2785;BME280;57944;48.722;9.316;2023-05-29T12:19:38;98150.44;;;31.63;23.18
2785;BME280;57944;48.722;9.316;2023-05-29T12:22:09;98156.25;;;31.80;22.69
2785;BME280;57944;48.722;9.316;2023-05-29T12:24:40;98149.28;;;31.97;23.47
2785;BME280;57944;48.722;9.316;2023-05-29T12:27:13;98157.13;;;31.72;22.84
2785;BME280;57944;48.722;9.316;2023-05-29T12:29:44;98158.28;;;32.45;22.43
2785;BME280;57944;48.722;9.316;2023-05-29T12:32:15;98154.63;;;33.14;21.60
2785;BME280;57944;48.722;9.316;2023-05-29T12:34:49;98149.00;;;34.39;20.44
2785;BME280;57944;48.722;9.316;2023-05-29T12:37:23;98162.81;;;35.03;20.19
2785;BME280;57944;48.722;9.316;2023-05-29T12:40:08;98158.97;;;34.11;21.22
2785;BME280;57944;48.722;9.316;2023-05-29T12:42:42;98150.34;;;33.38;21.94
2785;BME280;57944;48.722;9.316;2023-05-29T12:45:13;98163.00;;;33.17;21.68
2785;BME280;57944;48.722;9.316;2023-05-29T12:47:51;98146.56;;;33.67;21.08
2785;BME280;57944;48.722;9.316;2023-05-29T12:50:23;98154.59;;;33.27;21.82
2785;BME280;57944;48.722;9.316;2023-05-29T12:52:59;98170.69;;;30.96;23.79
2785;BME280;57944;48.722;9.316;2023-05-29T12:55:32;98164.97;;;31.48;23.59
2785;BME280;57944;48.722;9.316;2023-05-29T12:58:08;98163.78;;;32.03;22.59
2785;BME280;57944;48.722;9.316;2023-05-29T13:00:41;98176.06;;;32.85;22.50
2785;BME280;57944;48.722;9.316;2023-05-29T13:03:12;98150.56;;;32.64;21.41
2785;BME280;57944;48.722;9.316;2023-05-29T13:05:43;98139.78;;;33.38;20.94
2785;BME280;57944;48.722;9.316;2023-05-29T13:08:14;98155.97;;;33.80;21.50
2785;BME280;57944;48.722;9.316;2023-05-29T13:10:45;98156.09;;;31.31;22.71
2785;BME280;57944;48.722;9.316;2023-05-29T13:13:18;98159.91;;;30.29;23.77
2785;BME280;57944;48.722;9.316;2023-05-29T13:15:50;98157.34;;;31.67;22.17
2785;BME280;57944;48.722;9.316;2023-05-29T13:18:21;98155.50;;;32.78;21.34
2785;BME280;57944;48.722;9.316;2023-05-29T13:20:52;98154.34;;;32.51;21.92
2785;BME280;57944;48.722;9.316;2023-05-29T13:23:23;98152.84;;;32.78;21.41
2785;BME280;57944;48.722;9.316;2023-05-29T13:25:55;98142.22;;;31.76;21.86
2785;BME280;57944;48.722;9.316;2023-05-29T13:28:29;98144.38;;;32.85;21.95
2785;BME280;57944;48.722;9.316;2023-05-29T13:31:00;98141.38;;;33.27;21.03
2785;BME280;57944;48.722;9.316;2023-05-29T13:33:30;98144.78;;;32.87;21.72
2785;BME280;57944;48.722;9.316;2023-05-29T13:36:01;98139.38;;;33.52;20.77
2785;BME280;57944;48.722;9.316;2023-05-29T13:38:32;98129.69;;;33.28;20.31
2785;BME280;57944;48.722;9.316;2023-05-29T13:41:03;98141.03;;;33.72;20.78